Time;durP1;ratioP1;P1;durP2;ratioP2;P2;SDS_P1;SDS_P2;PMS_P1;PMS_P2;Temp;Humidity;BMP_temperature;BMP_pressure;BME280_temperature;BME280_humidity;BME280_pressure;Samples;Min_cycle;Max_cycle;Signal;HPM_P1;HPM_P2
2021/12/17 00:01:47;;;;;;;;;;;3.60;46.20;;;;;;5103984;28;20471;-69
2021/12/17 00:04:27;;;;;;;;;;;3.70;46.20;;;;;;5109143;27;19982;-70
2021/12/17 00:06:55;;;;;;;;;;;3.70;45.30;;;;;;5097969;27;19928;-70
2021/12/17 00:09:23;;;;;;;;;;;3.70;45.80;;;;;;5106557;27;19930;-69
2021/12/17 00:11:52;;;;;;;;;;;3.70;45.30;;;;;;5101451;28;19954;-69
2021/12/17 00:14:26;;;;;;;;;;;3.80;45.20;;;;;;5106116;27;20023;-69
2021/12/17 00:16:55;;;;;;;;;;;3.80;45.20;;;;;;5104510;28;20058;-70
2021/12/17 00:19:39;;;;;;;;;;;3.90;45.30;;;;;;5100759;28;20026;-69
2021/12/17 00:49:57;;;;;;;;;;;4.20;42.30;;;;;;5099018;28;19924;-69
2021/12/17 00:52:28;;;;;;;;;;;4.20;41.50;;;;;;5103244;28;19934;-69
2021/12/17 00:54:56;;;;;;;;;;;4.20;41.50;;;;;;5098349;28;20367;-69
2021/12/17 00:57:28;;;;;;;;;;;4.30;41.60;;;;;;5101867;28;19934;-69
2021/12/17 00:59:57;;;;;;;;;;;4.30;41.10;;;;;;5100202;27;19926;-69
2021/12/17 01:02:26;;;;;;;;;;;4.20;41.00;;;;;;5085379;28;19928;-69
2021/12/17 01:04:56;;;;;;;;;;;4.20;41.40;;;;;;5099877;28;20371;-69
2021/12/17 01:07:26;;;;;;;;;;;4.10;41.40;;;;;;5092344;28;19924;-69
2021/12/17 01:09:56;;;;;;;;;;;4.10;41.40;;;;;;5100111;28;20574;-69
2021/12/17 01:12:24;;;;;;;;;;;4.10;41.40;;;;;;5079922;28;20015;-69
2021/12/17 01:14:53;;;;;;;;;;;4.10;41.50;;;;;;5089354;28;19973;-69
2021/12/17 01:17:25;;;;;;;;;;;4.10;41.50;;;;;;5096578;28;20291;-67
2021/12/17 01:20:19;;;;;;;;;;;4.00;41.40;;;;;;5104311;28;20015;-69
2021/12/17 01:35:20;;;;;;;;;;;4.20;41.80;;;;;;5077684;27;20012;-70
2021/12/17 01:37:33;;;;;;;;;;;4.30;40.70;;;;;;5100386;27;20010;-70
2021/12/17 01:42:36;;;;;;;;;;;4.00;42.40;;;;;;5092548;28;19974;-70
2021/12/17 01:45:04;;;;;;;;;;;4.00;43.20;;;;;;5099109;28;19919;-68
2021/12/17 01:47:32;;;;;;;;;;;4.00;43.80;;;;;;5100159;28;19928;-68
2021/12/17 01:55:49;;;;;;;;;;;3.90;45.40;;;;;;5098035;28;19924;-68
2021/12/17 02:01:07;;;;;;;;;;;3.90;45.40;;;;;;5077052;28;19919;-69
2021/12/17 02:03:37;;;;;;;;;;;4.00;46.20;;;;;;5059668;28;21186;-70
2021/12/17 02:06:05;;;;;;;;;;;4.10;45.90;;;;;;5083767;28;19926;-69
2021/12/17 02:08:36;;;;;;;;;;;4.10;45.50;;;;;;5102160;28;19927;-70
2021/12/17 02:11:55;;;;;;;;;;;4.10;45.80;;;;;;5104806;27;20010;-70
2021/12/17 02:20:12;;;;;;;;;;;4.30;45.10;;;;;;5104168;27;19920;-70
2021/12/17 02:31:08;;;;;;;;;;;4.40;45.30;;;;;;5093913;28;20023;-69
2021/12/17 02:33:36;;;;;;;;;;;4.50;44.70;;;;;;5087525;28;20393;-70
2021/12/17 02:36:06;;;;;;;;;;;4.50;45.30;;;;;;5096651;28;20292;-70
2021/12/17 02:38:39;;;;;;;;;;;4.60;45.10;;;;;;5101641;28;20286;-70
2021/12/17 02:46:39;;;;;;;;;;;4.50;44.10;;;;;;5101830;28;19920;-68
2021/12/17 02:49:07;;;;;;;;;;;4.60;44.70;;;;;;5096971;28;20398;-68
2021/12/17 02:51:35;;;;;;;;;;;4.60;44.40;;;;;;5101039;28;19919;-68
2021/12/17 02:54:05;;;;;;;;;;;4.60;44.40;;;;;;5100879;28;19920;-68
2021/12/17 02:56:33;;;;;;;;;;;4.60;43.60;;;;;;5099947;28;19920;-68
2021/12/17 02:59:13;;;;;;;;;;;4.70;43.00;;;;;;5105389;28;19943;-68
2021/12/17 03:01:45;;;;;;;;;;;4.60;43.40;;;;;;5103158;28;19927;-68
2021/12/17 03:04:13;;;;;;;;;;;4.50;43.80;;;;;;5106740;27;19919;-68
2021/12/17 03:06:42;;;;;;;;;;;4.50;44.00;;;;;;5103610;27;19924;-68
2021/12/17 03:09:12;;;;;;;;;;;4.40;42.90;;;;;;5104481;28;19951;-69
2021/12/17 03:11:39;;;;;;;;;;;4.40;43.30;;;;;;5102913;28;19924;-69
2021/12/17 03:14:08;;;;;;;;;;;4.40;44.70;;;;;;5107101;27;20022;-69
2021/12/17 03:16:41;;;;;;;;;;;4.30;45.20;;;;;;5104086;27;19951;-69
2021/12/17 03:19:25;;;;;;;;;;;4.30;45.60;;;;;;5105546;27;19977;-69
2021/12/17 03:24:40;;;;;;;;;;;4.30;46.00;;;;;;5099815;28;19928;-69
2021/12/17 03:27:07;;;;;;;;;;;4.30;46.00;;;;;;5101857;28;20493;-69
2021/12/17 03:29:37;;;;;;;;;;;4.40;46.60;;;;;;5104055;28;20018;-69
2021/12/17 03:32:05;;;;;;;;;;;4.40;46.30;;;;;;5102861;28;20003;-69
2021/12/17 03:34:33;;;;;;;;;;;4.20;44.60;;;;;;5104325;28;20385;-69
2021/12/17 03:37:08;;;;;;;;;;;4.30;45.60;;;;;;5106670;28;20285;-69
2021/12/17 03:39:37;;;;;;;;;;;4.30;44.90;;;;;;5101543;28;20010;-69
2021/12/17 03:42:07;;;;;;;;;;;4.20;44.20;;;;;;5105295;27;20326;-69
2021/12/17 03:44:35;;;;;;;;;;;4.20;45.70;;;;;;5097014;27;21001;-69
2021/12/17 03:47:04;;;;;;;;;;;4.30;46.50;;;;;;5099375;28;19927;-69
2021/12/17 03:49:35;;;;;;;;;;;4.30;46.70;;;;;;5094752;28;19920;-69
2021/12/17 03:52:06;;;;;;;;;;;4.30;46.10;;;;;;5082742;28;19919;-69
2021/12/17 03:54:34;;;;;;;;;;;4.30;46.30;;;;;;5102705;27;19924;-69
2021/12/17 03:57:10;;;;;;;;;;;4.30;46.50;;;;;;5080325;27;20302;-69
2021/12/17 03:59:38;;;;;;;;;;;4.30;47.00;;;;;;5101564;27;19930;-69
2021/12/17 04:02:05;;;;;;;;;;;4.30;46.40;;;;;;5104494;27;20398;-69
2021/12/17 04:04:33;;;;;;;;;;;4.20;46.30;;;;;;5087286;27;21211;-69
2021/12/17 04:07:01;;;;;;;;;;;4.20;46.90;;;;;;5103083;28;19998;-67
2021/12/17 04:09:31;;;;;;;;;;;4.20;46.50;;;;;;5103944;28;20023;-67
2021/12/17 04:12:00;;;;;;;;;;;4.20;47.60;;;;;;5104960;27;19919;-68
2021/12/17 04:14:39;;;;;;;;;;;4.30;47.70;;;;;;5101805;27;19970;-68
2021/12/17 04:17:07;;;;;;;;;;;4.20;46.60;;;;;;5106942;27;19920;-69
2021/12/17 04:19:36;;;;;;;;;;;4.30;47.40;;;;;;5102844;27;19932;-68
2021/12/17 04:22:04;;;;;;;;;;;4.30;47.60;;;;;;5088399;28;19923;-69
2021/12/17 04:24:32;;;;;;;;;;;4.30;47.10;;;;;;5098993;28;19934;-69
2021/12/17 04:27:00;;;;;;;;;;;4.30;47.40;;;;;;5104483;27;19919;-68
2021/12/17 04:29:30;;;;;;;;;;;4.30;47.30;;;;;;5099237;27;20022;-69
2021/12/17 04:31:58;;;;;;;;;;;4.30;47.40;;;;;;5104184;28;20432;-69
2021/12/17 04:34:26;;;;;;;;;;;4.30;47.20;;;;;;5102444;27;19927;-69
2021/12/17 04:36:56;;;;;;;;;;;4.30;47.60;;;;;;5108828;27;19998;-69
2021/12/17 04:39:24;;;;;;;;;;;4.40;48.00;;;;;;5103011;27;19945;-69
2021/12/17 04:41:56;;;;;;;;;;;4.40;47.60;;;;;;5099143;28;20024;-69
2021/12/17 04:44:27;;;;;;;;;;;4.30;47.30;;;;;;5084507;28;20356;-69
2021/12/17 04:57:13;;;;;;;;;;;4.30;47.90;;;;;;5102842;28;19919;-68
2021/12/17 04:58:09;;;;;;;;;;;4.50;48.20;;;;;;5102990;28;19927;-69
2021/12/17 05:00:37;;;;;;;;;;;4.40;47.50;;;;;;5100122;28;19919;-69
2021/12/17 05:03:06;;;;;;;;;;;4.50;47.70;;;;;;5105093;27;19972;-69
2021/12/17 05:05:36;;;;;;;;;;;4.50;48.10;;;;;;5101159;27;19924;-69
2021/12/17 05:08:08;;;;;;;;;;;4.50;47.80;;;;;;5083721;28;19965;-69
2021/12/17 05:10:54;;;;;;;;;;;4.50;47.50;;;;;;5105454;27;19955;-68
2021/12/17 05:19:01;;;;;;;;;;;4.60;47.20;;;;;;5100558;28;19939;-68
2021/12/17 05:21:29;;;;;;;;;;;4.60;47.50;;;;;;5102089;28;19926;-69
2021/12/17 05:23:57;;;;;;;;;;;4.60;47.20;;;;;;5101150;28;19955;-69
2021/12/17 05:26:25;;;;;;;;;;;4.70;47.40;;;;;;5101069;28;20503;-69
2021/12/17 05:28:55;;;;;;;;;;;4.70;47.30;;;;;;5102559;27;20019;-69
2021/12/17 05:31:23;;;;;;;;;;;4.70;46.70;;;;;;5104438;28;19923;-69
2021/12/17 05:33:52;;;;;;;;;;;4.70;46.30;;;;;;5102134;27;19919;-69
2021/12/17 05:36:21;;;;;;;;;;;4.70;46.50;;;;;;5101441;27;20023;-69
2021/12/17 05:38:49;;;;;;;;;;;4.70;46.70;;;;;;5102941;28;19919;-69
2021/12/17 05:41:18;;;;;;;;;;;4.70;46.60;;;;;;5102412;28;19976;-69
2021/12/17 05:43:55;;;;;;;;;;;4.70;46.70;;;;;;5106305;27;19945;-69
2021/12/17 05:46:37;;;;;;;;;;;4.80;47.20;;;;;;5101280;27;20016;-69
2021/12/17 05:49:05;;;;;;;;;;;4.80;46.60;;;;;;5100838;27;19979;-69
2021/12/17 05:51:34;;;;;;;;;;;4.90;46.60;;;;;;5102640;28;19920;-69
2021/12/17 05:54:03;;;;;;;;;;;4.90;46.20;;;;;;5086173;27;21053;-69
2021/12/17 05:56:30;;;;;;;;;;;4.90;46.20;;;;;;5098240;28;19919;-69
2021/12/17 05:58:58;;;;;;;;;;;5.00;45.70;;;;;;5095010;28;20379;-69
2021/12/17 06:01:26;;;;;;;;;;;5.00;45.40;;;;;;5101263;28;19923;-69
2021/12/17 06:03:54;;;;;;;;;;;5.00;45.70;;;;;;5104885;27;20151;-69
2021/12/17 06:06:28;;;;;;;;;;;5.00;45.10;;;;;;5097577;28;20391;-69
2021/12/17 06:09:00;;;;;;;;;;;5.00;45.10;;;;;;5100558;27;20026;-69
2021/12/17 06:11:28;;;;;;;;;;;5.10;44.90;;;;;;5083934;28;20280;-69
2021/12/17 06:13:56;;;;;;;;;;;5.10;44.00;;;;;;5068870;28;19974;-69
2021/12/17 06:16:24;;;;;;;;;;;5.10;43.20;;;;;;5099317;27;19919;-68
2021/12/17 06:18:53;;;;;;;;;;;5.10;42.30;;;;;;5098179;28;20379;-69
2021/12/17 06:21:21;;;;;;;;;;;5.00;43.30;;;;;;5096901;28;19923;-68
2021/12/17 06:23:49;;;;;;;;;;;5.00;43.50;;;;;;5099637;28;19951;-69
2021/12/17 06:26:18;;;;;;;;;;;5.00;43.80;;;;;;5100300;28;19942;-69
2021/12/17 06:28:49;;;;;;;;;;;5.00;43.60;;;;;;5100307;28;19923;-69
2021/12/17 06:31:19;;;;;;;;;;;5.00;44.00;;;;;;5082803;28;19928;-68
2021/12/17 06:33:47;;;;;;;;;;;4.90;43.60;;;;;;5104185;28;19928;-68
2021/12/17 06:36:15;;;;;;;;;;;4.90;44.20;;;;;;5098224;28;19919;-69
2021/12/17 06:38:43;;;;;;;;;;;4.80;44.30;;;;;;5092925;28;20097;-69
2021/12/17 06:41:11;;;;;;;;;;;4.80;44.80;;;;;;5097173;28;20360;-69
2021/12/17 06:43:42;;;;;;;;;;;4.70;43.80;;;;;;5083067;28;19926;-69
2021/12/17 06:46:22;;;;;;;;;;;4.70;45.00;;;;;;5097887;28;19926;-69
2021/12/17 06:48:57;;;;;;;;;;;4.70;46.00;;;;;;5101315;28;19935;-70
2021/12/17 07:00:08;;;;;;;;;;;4.60;45.00;;;;;;5099628;28;19942;-69
2021/12/17 07:10:57;;;;;;;;;;;4.70;45.40;;;;;;5096561;28;19931;-70
2021/12/17 07:21:57;;;;;;;;;;;4.70;45.00;;;;;;5094512;28;19934;-69
2021/12/17 07:33:10;;;;;;;;;;;4.70;43.50;;;;;;5095425;28;19924;-69
2021/12/17 07:35:52;;;;;;;;;;;4.60;41.90;;;;;;5093540;28;19926;-69
2021/12/17 07:41:13;;;;;;;;;;;4.50;42.70;;;;;;5067993;28;19967;-69
2021/12/17 07:43:51;;;;;;;;;;;4.50;43.20;;;;;;5102460;27;20406;-70
2021/12/17 07:46:20;;;;;;;;;;;4.50;42.50;;;;;;5100260;28;19969;-70
2021/12/17 07:48:49;;;;;;;;;;;4.50;42.40;;;;;;5102141;28;19929;-69
2021/12/17 07:51:19;;;;;;;;;;;4.50;42.50;;;;;;5103426;28;19931;-69
2021/12/17 07:53:47;;;;;;;;;;;4.50;41.80;;;;;;5082735;28;19924;-69
2021/12/17 07:56:16;;;;;;;;;;;4.50;41.80;;;;;;5105066;27;19939;-69
2021/12/17 07:58:44;;;;;;;;;;;4.60;41.80;;;;;;5103997;28;19919;-69
2021/12/17 08:01:12;;;;;;;;;;;4.60;40.70;;;;;;5105038;27;19973;-70
2021/12/17 08:03:41;;;;;;;;;;;4.60;39.90;;;;;;5106718;28;20008;-70
2021/12/17 08:06:10;;;;;;;;;;;4.60;39.30;;;;;;5085560;28;19920;-69
2021/12/17 08:08:38;;;;;;;;;;;4.60;38.70;;;;;;5104583;27;19919;-69
2021/12/17 08:11:06;;;;;;;;;;;4.70;38.10;;;;;;5102215;27;19920;-70
2021/12/17 08:13:37;;;;;;;;;;;4.70;37.80;;;;;;5104751;27;19927;-71
2021/12/17 08:16:15;;;;;;;;;;;4.70;36.30;;;;;;5098196;28;19920;-70
2021/12/17 08:18:55;;;;;;;;;;;4.80;35.50;;;;;;5103973;28;20408;-70
2021/12/17 08:27:09;;;;;;;;;;;4.80;32.50;;;;;;5103344;27;19928;-69
2021/12/17 08:29:52;;;;;;;;;;;4.90;32.20;;;;;;5104322;28;19927;-69
2021/12/17 08:32:20;;;;;;;;;;;5.00;30.00;;;;;;5103978;28;20294;-69
2021/12/17 08:34:48;;;;;;;;;;;5.10;28.00;;;;;;5098634;27;19928;-69
2021/12/17 08:37:17;;;;;;;;;;;5.20;26.60;;;;;;5104508;28;19919;-69
2021/12/17 08:39:46;;;;;;;;;;;5.20;26.50;;;;;;5098155;28;20290;-69
2021/12/17 08:42:14;;;;;;;;;;;5.30;25.70;;;;;;5105112;27;19966;-69
2021/12/17 08:44:41;;;;;;;;;;;5.30;25.40;;;;;;5104794;28;19928;-69
2021/12/17 08:47:10;;;;;;;;;;;5.30;25.30;;;;;;5100094;28;20010;-70
2021/12/17 08:49:40;;;;;;;;;;;5.30;25.20;;;;;;5099864;27;20018;-69
2021/12/17 08:52:08;;;;;;;;;;;5.40;23.60;;;;;;5101894;28;20046;-69
2021/12/17 08:54:37;;;;;;;;;;;5.40;23.20;;;;;;5102995;27;19926;-69
2021/12/17 08:57:06;;;;;;;;;;;5.50;22.90;;;;;;5106734;28;20025;-69
2021/12/17 08:59:34;;;;;;;;;;;5.40;22.70;;;;;;5104685;27;19954;-70
2021/12/17 09:02:02;;;;;;;;;;;5.50;22.70;;;;;;5101584;28;19927;-70
2021/12/17 09:04:30;;;;;;;;;;;5.50;22.20;;;;;;5101203;27;20395;-69
2021/12/17 09:06:58;;;;;;;;;;;5.60;20.70;;;;;;5107077;27;20378;-69
2021/12/17 09:09:27;;;;;;;;;;;5.70;20.00;;;;;;5102887;28;20022;-69
2021/12/17 09:11:56;;;;;;;;;;;5.70;20.10;;;;;;5100897;28;20327;-70
2021/12/17 09:14:28;;;;;;;;;;;5.80;20.40;;;;;;5104624;27;20340;-69
2021/12/17 09:16:56;;;;;;;;;;;5.80;20.00;;;;;;5103844;27;19970;-69
2021/12/17 09:19:24;;;;;;;;;;;5.80;17.70;;;;;;5100833;28;20388;-70
2021/12/17 09:21:52;;;;;;;;;;;5.90;17.40;;;;;;5103186;27;19923;-70
2021/12/17 09:24:20;;;;;;;;;;;5.90;17.50;;;;;;5104048;27;19968;-69
2021/12/17 09:26:47;;;;;;;;;;;5.90;16.80;;;;;;5105243;27;19959;-69
2021/12/17 09:29:18;;;;;;;;;;;6.00;15.80;;;;;;5101047;27;20310;-69
2021/12/17 09:31:46;;;;;;;;;;;6.10;15.50;;;;;;5104823;28;20010;-69
2021/12/17 09:34:14;;;;;;;;;;;6.10;14.80;;;;;;5101252;28;19928;-69
2021/12/17 09:36:42;;;;;;;;;;;6.10;14.50;;;;;;5099156;28;20378;-70
2021/12/17 09:39:10;;;;;;;;;;;6.10;14.70;;;;;;5100074;28;19967;-69
2021/12/17 09:41:43;;;;;;;;;;;6.30;14.40;;;;;;5103379;27;19928;-70
2021/12/17 09:44:13;;;;;;;;;;;6.30;13.40;;;;;;5103993;28;20311;-70
2021/12/17 09:46:44;;;;;;;;;;;6.40;13.50;;;;;;5101973;27;19923;-70
2021/12/17 09:49:17;;;;;;;;;;;6.40;12.80;;;;;;5093984;28;20023;-69
2021/12/17 09:51:45;;;;;;;;;;;6.40;12.40;;;;;;5102271;27;19955;-69
2021/12/17 09:54:13;;;;;;;;;;;6.40;12.20;;;;;;5102074;28;19954;-69
2021/12/17 09:56:43;;;;;;;;;;;6.50;12.20;;;;;;5099825;27;19943;-69
2021/12/17 09:59:13;;;;;;;;;;;6.50;10.40;;;;;;5102006;28;20379;-69
2021/12/17 10:01:42;;;;;;;;;;;6.50;11.00;;;;;;5103114;28;19919;-70
2021/12/17 10:04:19;;;;;;;;;;;6.40;10.10;;;;;;5098379;28;20010;-69
2021/12/17 10:06:51;;;;;;;;;;;6.40;10.70;;;;;;5087911;28;19956;-68
2021/12/17 10:09:19;;;;;;;;;;;6.50;9.90;;;;;;5100416;28;19934;-69
2021/12/17 10:12:04;;;;;;;;;;;6.40;10.50;;;;;;5102178;28;20397;-69
2021/12/17 10:14:32;;;;;;;;;;;6.50;12.20;;;;;;5100495;27;20014;-70
2021/12/17 10:17:07;;;;;;;;;;;6.60;11.90;;;;;;5102668;27;19999;-69
2021/12/17 10:19:44;;;;;;;;;;;6.50;11.60;;;;;;5100595;28;20442;-69
2021/12/17 10:22:12;;;;;;;;;;;6.50;12.10;;;;;;5088512;27;19947;-69
2021/12/17 10:24:43;;;;;;;;;;;6.50;12.10;;;;;;5099499;28;19978;-70
2021/12/17 10:27:21;;;;;;;;;;;6.40;12.50;;;;;;5100603;27;20618;-69
2021/12/17 10:29:49;;;;;;;;;;;6.40;12.50;;;;;;5102716;27;20394;-70
2021/12/17 10:32:20;;;;;;;;;;;6.50;12.30;;;;;;5100780;28;19931;-69
2021/12/17 10:35:07;;;;;;;;;;;6.40;12.90;;;;;;5102072;28;19938;-69
2021/12/17 10:37:36;;;;;;;;;;;6.60;13.00;;;;;;5102975;27;19927;-70
2021/12/17 10:40:17;;;;;;;;;;;6.50;13.50;;;;;;5100225;28;20342;-71
2021/12/17 10:42:54;;;;;;;;;;;6.50;13.60;;;;;;5100436;28;19924;-70
2021/12/17 10:45:28;;;;;;;;;;;6.50;13.50;;;;;;5102023;28;19927;-70
2021/12/17 10:48:02;;;;;;;;;;;6.60;12.10;;;;;;5080215;28;19927;-69
2021/12/17 10:50:31;;;;;;;;;;;6.40;11.50;;;;;;5080149;28;19920;-70
2021/12/17 10:53:07;;;;;;;;;;;6.40;11.80;;;;;;5103277;28;20383;-70
2021/12/17 10:55:39;;;;;;;;;;;6.50;11.40;;;;;;5096251;28;19919;-69
2021/12/17 10:58:09;;;;;;;;;;;6.60;11.50;;;;;;5097446;28;19998;-69
2021/12/17 11:00:42;;;;;;;;;;;6.60;12.10;;;;;;5097541;28;19934;-69
2021/12/17 11:03:10;;;;;;;;;;;6.70;11.20;;;;;;5100391;28;20002;-70
2021/12/17 11:05:44;;;;;;;;;;;6.70;10.30;;;;;;5098675;28;19920;-70
2021/12/17 11:08:20;;;;;;;;;;;6.60;11.10;;;;;;5086698;28;19923;-70
2021/12/17 11:10:55;;;;;;;;;;;6.70;11.20;;;;;;5077850;28;20397;-70
2021/12/17 11:13:27;;;;;;;;;;;6.70;10.60;;;;;;5106405;28;19949;-70
2021/12/17 11:15:55;;;;;;;;;;;6.80;10.10;;;;;;5098030;28;20470;-74
2021/12/17 11:18:25;;;;;;;;;;;6.90;10.20;;;;;;5101933;28;20426;-69
2021/12/17 11:20:56;;;;;;;;;;;6.80;10.60;;;;;;5102559;28;20015;-70
2021/12/17 11:23:24;;;;;;;;;;;7.00;10.30;;;;;;5109992;27;19998;-70
2021/12/17 11:25:56;;;;;;;;;;;6.90;10.80;;;;;;5102360;28;20435;-70
2021/12/17 11:28:24;;;;;;;;;;;6.90;10.50;;;;;;5104145;28;20101;-70
2021/12/17 11:30:52;;;;;;;;;;;7.00;10.70;;;;;;5081899;28;20294;-70
2021/12/17 11:33:20;;;;;;;;;;;7.10;10.40;;;;;;5105326;27;19927;-70
2021/12/17 11:35:49;;;;;;;;;;;7.10;10.30;;;;;;5087869;27;19980;-68
2021/12/17 11:38:33;;;;;;;;;;;7.00;10.30;;;;;;5107360;28;19923;-70
2021/12/17 11:41:06;;;;;;;;;;;7.10;10.30;;;;;;5101995;27;19973;-70
2021/12/17 11:43:40;;;;;;;;;;;7.10;10.30;;;;;;5106882;27;19926;-68
2021/12/17 11:46:12;;;;;;;;;;;7.20;10.30;;;;;;5098914;28;19932;-69
2021/12/17 11:48:45;;;;;;;;;;;7.20;10.20;;;;;;5097683;28;19924;-70
2021/12/17 11:51:14;;;;;;;;;;;7.30;10.40;;;;;;5100429;28;20006;-70
2021/12/17 11:53:55;;;;;;;;;;;7.20;10.80;;;;;;5068567;28;19920;-69
2021/12/17 11:56:35;;;;;;;;;;;7.20;10.40;;;;;;5099769;28;19927;-69
2021/12/17 11:59:03;;;;;;;;;;;7.30;10.40;;;;;;5104010;27;19934;-70
2021/12/17 12:01:52;;;;;;;;;;;7.30;10.40;;;;;;5106621;27;19920;-69
2021/12/17 12:04:22;;;;;;;;;;;7.40;10.50;;;;;;5104252;28;20478;-70
2021/12/17 12:06:59;;;;;;;;;;;7.50;8.80;;;;;;5107463;27;19961;-69
2021/12/17 12:09:46;;;;;;;;;;;7.50;9.20;;;;;;5100114;28;20026;-70
2021/12/17 12:12:16;;;;;;;;;;;7.60;8.40;;;;;;5104405;27;20432;-69
2021/12/17 12:14:44;;;;;;;;;;;7.50;8.50;;;;;;5105022;28;19927;-69
2021/12/17 12:17:12;;;;;;;;;;;7.60;8.80;;;;;;5107625;27;19923;-70
2021/12/17 12:19:48;;;;;;;;;;;7.70;8.80;;;;;;5099176;28;20086;-70
2021/12/17 12:22:29;;;;;;;;;;;7.70;8.50;;;;;;5097605;28;19920;-69
2021/12/17 12:25:18;;;;;;;;;;;7.80;8.60;;;;;;5099551;28;19923;-71
2021/12/17 12:27:47;;;;;;;;;;;7.80;9.00;;;;;;5103241;28;19973;-70
2021/12/17 12:30:15;;;;;;;;;;;7.80;8.90;;;;;;5102336;27;19943;-70
2021/12/17 12:32:59;;;;;;;;;;;7.80;9.30;;;;;;5106679;28;19920;-70
2021/12/17 12:35:31;;;;;;;;;;;7.80;8.90;;;;;;5101084;28;20325;-70
2021/12/17 12:38:12;;;;;;;;;;;8.00;8.90;;;;;;5105221;27;19947;-69
2021/12/17 12:40:45;;;;;;;;;;;8.10;8.50;;;;;;5066361;27;20371;-70
2021/12/17 12:43:27;;;;;;;;;;;7.90;7.60;;;;;;5105228;28;19926;-70
2021/12/17 12:45:55;;;;;;;;;;;7.80;8.20;;;;;;5100261;27;19928;-69
2021/12/17 12:48:33;;;;;;;;;;;7.70;8.40;;;;;;5105752;27;20442;-69
2021/12/17 12:51:13;;;;;;;;;;;7.60;9.50;;;;;;5099200;27;19919;-70
2021/12/17 12:53:45;;;;;;;;;;;7.70;8.90;;;;;;5105288;27;20010;-71
2021/12/17 12:56:16;;;;;;;;;;;7.60;9.80;;;;;;5088029;28;19924;-70
2021/12/17 12:58:50;;;;;;;;;;;7.60;9.90;;;;;;5094984;28;19930;-69
2021/12/17 13:01:24;;;;;;;;;;;7.50;9.30;;;;;;5100612;28;19961;-70
2021/12/17 13:03:55;;;;;;;;;;;7.80;9.60;;;;;;5084980;28;20010;-70
2021/12/17 13:06:25;;;;;;;;;;;7.90;9.10;;;;;;5099456;27;20071;-71
2021/12/17 13:08:54;;;;;;;;;;;8.00;9.00;;;;;;5098545;28;19920;-71
2021/12/17 13:11:23;;;;;;;;;;;7.90;8.60;;;;;;5102250;27;19940;-71
2021/12/17 13:13:54;;;;;;;;;;;7.80;9.60;;;;;;5080582;27;19951;-70
2021/12/17 13:16:35;;;;;;;;;;;7.70;9.90;;;;;;5081011;27;19924;-69
2021/12/17 13:22:01;;;;;;;;;;;7.80;10.70;;;;;;5101105;28;19919;-70
2021/12/17 13:24:30;;;;;;;;;;;7.70;10.50;;;;;;5102395;28;20019;-70
2021/12/17 13:26:59;;;;;;;;;;;7.50;11.10;;;;;;5103286;27;19927;-70
2021/12/17 13:29:34;;;;;;;;;;;7.60;11.40;;;;;;5097687;28;20001;-70
2021/12/17 13:32:03;;;;;;;;;;;7.60;11.40;;;;;;5098148;28;19928;-70
2021/12/17 13:34:32;;;;;;;;;;;7.60;11.70;;;;;;5092406;28;19931;-70
2021/12/17 13:37:04;;;;;;;;;;;7.60;11.40;;;;;;5097891;28;19924;-71
2021/12/17 13:39:34;;;;;;;;;;;7.50;11.50;;;;;;5091637;28;19927;-71
2021/12/17 13:42:02;;;;;;;;;;;7.50;11.90;;;;;;5104225;27;19930;-70
2021/12/17 13:44:32;;;;;;;;;;;7.40;11.70;;;;;;5103357;28;19924;-71
2021/12/17 13:47:13;;;;;;;;;;;7.30;12.50;;;;;;5103184;28;19930;-70
2021/12/17 13:49:42;;;;;;;;;;;7.30;13.00;;;;;;5099037;28;19926;-71
2021/12/17 13:52:10;;;;;;;;;;;7.30;13.40;;;;;;5101448;27;19920;-70
2021/12/17 13:54:38;;;;;;;;;;;7.40;13.00;;;;;;5085208;28;19981;-69
2021/12/17 13:57:06;;;;;;;;;;;7.30;13.40;;;;;;5102425;28;19927;-71
2021/12/17 13:59:35;;;;;;;;;;;7.30;14.00;;;;;;5081862;28;20361;-71
2021/12/17 14:02:08;;;;;;;;;;;7.20;14.00;;;;;;5107905;27;20012;-70
2021/12/17 14:04:38;;;;;;;;;;;7.00;14.50;;;;;;5101168;28;19973;-70
2021/12/17 14:07:06;;;;;;;;;;;7.10;14.80;;;;;;5100818;28;19920;-70
2021/12/17 14:09:34;;;;;;;;;;;7.00;15.30;;;;;;5100516;28;19928;-70
2021/12/17 14:12:09;;;;;;;;;;;6.90;15.60;;;;;;5102823;28;19920;-71
2021/12/17 14:15:00;;;;;;;;;;;6.90;15.50;;;;;;5098645;28;19923;-70
2021/12/17 14:17:33;;;;;;;;;;;6.80;16.30;;;;;;5063711;28;20299;-70
2021/12/17 14:20:07;;;;;;;;;;;6.90;16.00;;;;;;5100173;28;19919;-70
2021/12/17 14:22:36;;;;;;;;;;;6.90;16.10;;;;;;5101519;28;20359;-69
2021/12/17 14:25:25;;;;;;;;;;;6.80;16.40;;;;;;5100605;28;19920;-71
2021/12/17 14:27:58;;;;;;;;;;;6.80;17.20;;;;;;5098937;28;20342;-70
2021/12/17 14:30:28;;;;;;;;;;;6.80;17.20;;;;;;5077386;28;20582;-70
2021/12/17 14:32:56;;;;;;;;;;;6.70;17.30;;;;;;5099567;28;19978;-69
2021/12/17 14:35:46;;;;;;;;;;;6.60;17.20;;;;;;5101218;28;19927;-71
2021/12/17 14:38:15;;;;;;;;;;;6.50;17.90;;;;;;5100471;28;20294;-70
2021/12/17 14:40:53;;;;;;;;;;;6.50;18.80;;;;;;5097284;28;19924;-70
2021/12/17 14:43:21;;;;;;;;;;;6.60;18.30;;;;;;5099507;28;20416;-70
2021/12/17 14:45:55;;;;;;;;;;;6.60;17.70;;;;;;5098653;28;19945;-72
2021/12/17 14:48:32;;;;;;;;;;;6.60;17.90;;;;;;5096267;28;20382;-71
2021/12/17 15:02:38;;;;;;;;;;;6.40;17.90;;;;;;5102919;28;20102;-71
2021/12/17 15:05:06;;;;;;;;;;;6.30;17.50;;;;;;5096275;28;20378;-70
2021/12/17 15:07:43;;;;;;;;;;;6.30;17.20;;;;;;5102239;28;19923;-71
2021/12/17 15:10:12;;;;;;;;;;;6.20;17.30;;;;;;5096713;28;19920;-70
2021/12/17 15:12:42;;;;;;;;;;;6.20;16.90;;;;;;5103894;28;19934;-71
2021/12/17 15:15:13;;;;;;;;;;;6.20;16.90;;;;;;5102011;28;20007;-70
2021/12/17 15:17:41;;;;;;;;;;;6.20;16.90;;;;;;5100243;28;19927;-70
2021/12/17 15:20:19;;;;;;;;;;;6.20;16.90;;;;;;5097259;28;19930;-71
2021/12/17 15:22:50;;;;;;;;;;;6.20;17.10;;;;;;5106223;28;20435;-71
2021/12/17 15:25:18;;;;;;;;;;;6.10;16.90;;;;;;5094865;28;19920;-70
2021/12/17 15:27:46;;;;;;;;;;;6.10;16.80;;;;;;5101966;28;19965;-70
2021/12/17 15:30:15;;;;;;;;;;;6.10;17.20;;;;;;5095487;28;20295;-71
2021/12/17 15:32:46;;;;;;;;;;;6.00;17.20;;;;;;5105654;28;19923;-69
2021/12/17 15:35:20;;;;;;;;;;;6.00;16.70;;;;;;5101809;28;19923;-69
2021/12/17 15:37:50;;;;;;;;;;;6.00;17.50;;;;;;5101484;28;19941;-69
2021/12/17 15:40:18;;;;;;;;;;;6.00;17.20;;;;;;5096404;28;19923;-70
2021/12/17 15:42:47;;;;;;;;;;;6.00;17.20;;;;;;5100378;28;19930;-69
2021/12/17 15:45:16;;;;;;;;;;;5.90;16.70;;;;;;5099374;28;19935;-71
2021/12/17 15:47:44;;;;;;;;;;;5.90;17.30;;;;;;5104165;28;19926;-69
2021/12/17 15:50:14;;;;;;;;;;;5.90;17.40;;;;;;5099467;28;20462;-71
2021/12/17 15:52:45;;;;;;;;;;;5.90;16.70;;;;;;5084958;28;20017;-70
2021/12/17 15:55:15;;;;;;;;;;;5.90;17.20;;;;;;5095434;28;19925;-70
2021/12/17 15:57:42;;;;;;;;;;;5.90;17.00;;;;;;5101665;28;19999;-71
2021/12/17 16:00:11;;;;;;;;;;;5.80;16.80;;;;;;5098405;28;20684;-71
2021/12/17 16:02:42;;;;;;;;;;;5.80;17.80;;;;;;5099658;28;19926;-70
2021/12/17 16:05:11;;;;;;;;;;;5.80;16.80;;;;;;5104199;28;19962;-70
2021/12/17 16:07:39;;;;;;;;;;;5.70;17.30;;;;;;5099819;28;19949;-71
2021/12/17 16:11:12;;;;;;;;;;;5.70;17.50;;;;;;5101442;28;19924;-70
2021/12/17 16:20:59;;;;;;;;;;;5.50;18.20;;;;;;5102267;28;19931;-69
2021/12/17 16:21:42;;;;;;;;;;;5.40;18.50;;;;;;5091101;28;20007;-70
2021/12/17 16:24:10;;;;;;;;;;;5.40;19.20;;;;;;5103487;27;20393;-70
2021/12/17 16:26:40;;;;;;;;;;;5.40;19.30;;;;;;5102626;27;19980;-70
2021/12/17 16:29:13;;;;;;;;;;;5.30;19.70;;;;;;5103676;28;19971;-70
2021/12/17 16:31:41;;;;;;;;;;;5.30;19.70;;;;;;5103164;28;19967;-70
2021/12/17 16:34:09;;;;;;;;;;;5.30;19.70;;;;;;5110321;27;19927;-70
2021/12/17 16:36:38;;;;;;;;;;;5.30;19.80;;;;;;5097635;27;19938;-70
2021/12/17 16:39:07;;;;;;;;;;;5.30;19.80;;;;;;5096958;27;19987;-69
2021/12/17 16:41:35;;;;;;;;;;;5.20;20.10;;;;;;5109268;27;19920;-69
2021/12/17 16:44:06;;;;;;;;;;;5.30;19.80;;;;;;5100229;27;20379;-70
2021/12/17 16:49:20;;;;;;;;;;;5.20;20.30;;;;;;5098105;28;20022;-69
2021/12/17 16:51:48;;;;;;;;;;;5.20;19.70;;;;;;5100866;28;19935;-69
2021/12/17 16:54:16;;;;;;;;;;;5.20;20.50;;;;;;5103311;28;19919;-69
2021/12/17 16:56:44;;;;;;;;;;;5.20;19.70;;;;;;5101612;28;19928;-70
2021/12/17 16:59:12;;;;;;;;;;;5.10;19.70;;;;;;5079532;28;20463;-70
2021/12/17 17:01:41;;;;;;;;;;;5.10;19.70;;;;;;5100020;27;20404;-70
2021/12/17 17:04:13;;;;;;;;;;;5.10;19.90;;;;;;5105579;27;20345;-70
2021/12/17 17:06:42;;;;;;;;;;;5.10;19.70;;;;;;5102078;27;19919;-69
2021/12/17 17:09:11;;;;;;;;;;;5.10;20.30;;;;;;5096939;28;20042;-70
2021/12/17 17:11:40;;;;;;;;;;;5.10;20.40;;;;;;5080829;28;20004;-70
2021/12/17 17:14:08;;;;;;;;;;;5.10;20.70;;;;;;5102544;28;19973;-69
2021/12/17 17:16:39;;;;;;;;;;;5.10;19.80;;;;;;5098562;28;19969;-70
2021/12/17 17:19:08;;;;;;;;;;;5.10;19.90;;;;;;5100880;27;19928;-70
2021/12/17 17:21:36;;;;;;;;;;;5.10;19.70;;;;;;5102321;27;19954;-69
2021/12/17 17:24:05;;;;;;;;;;;5.00;20.10;;;;;;5104907;28;20029;-70
2021/12/17 17:26:33;;;;;;;;;;;5.00;20.10;;;;;;5100949;27;19920;-68
2021/12/17 17:29:03;;;;;;;;;;;5.10;20.40;;;;;;5075122;27;19930;-69